Time;durP1;ratioP1;P1;durP2;ratioP2;P2;SDS_P1;SDS_P2;PMS_P1;PMS_P2;Temp;Humidity;BMP_temperature;BMP_pressure;BME280_temperature;BME280_humidity;BME280_pressure;Samples;Min_cycle;Max_cycle;Signal;HPM_P1;HPM_P2
2023/12/26 00:00:07;;;;;;;3.97;3.17;;;8.40;99.90;;;;;;4984230;28;21703;-47
2023/12/26 00:02:33;;;;;;;6.60;3.22;;;8.40;99.90;;;;;;4984896;28;20736;-48
2023/12/26 00:04:59;;;;;;;6.75;2.83;;;8.40;99.90;;;;;;4985046;28;20018;-51
2023/12/26 00:07:24;;;;;;;4.53;3.00;;;8.40;99.90;;;;;;4984803;28;20034;-51
2023/12/26 00:09:50;;;;;;;5.90;3.00;;;8.40;99.90;;;;;;4983993;28;20113;-53
2023/12/26 00:12:16;;;;;;;4.43;2.90;;;8.40;99.90;;;;;;4986034;28;20034;-53
2023/12/26 00:14:41;;;;;;;4.82;3.38;;;8.40;99.90;;;;;;4984114;28;20027;-56
2023/12/26 00:17:07;;;;;;;5.75;3.05;;;8.50;99.90;;;;;;4982986;28;20030;-53
2023/12/26 00:19:33;;;;;;;3.47;2.63;;;8.50;99.90;;;;;;4985236;28;20037;-54
2023/12/26 00:21:58;;;;;;;6.88;3.17;;;8.50;99.90;;;;;;4982703;28;20069;-50
2023/12/26 00:24:24;;;;;;;3.50;2.83;;;8.50;99.90;;;;;;4986105;28;21055;-52
2023/12/26 00:26:50;;;;;;;3.17;2.40;;;8.40;99.90;;;;;;4982978;28;20022;-55
2023/12/26 00:29:15;;;;;;;5.55;3.15;;;8.50;99.90;;;;;;4986546;28;20026;-48
2023/12/26 00:31:41;;;;;;;6.18;2.90;;;8.50;99.90;;;;;;4981233;28;20039;-47
2023/12/26 00:34:07;;;;;;;4.32;2.50;;;8.40;99.90;;;;;;4982452;28;20092;-48
2023/12/26 00:36:33;;;;;;;4.32;2.60;;;8.50;99.90;;;;;;4985051;28;20045;-52
2023/12/26 00:38:58;;;;;;;4.28;2.70;;;8.50;99.90;;;;;;4982262;28;20026;-52
2023/12/26 00:41:24;;;;;;;3.22;2.42;;;8.50;99.90;;;;;;4986191;28;20034;-52
2023/12/26 00:43:51;;;;;;;5.15;3.20;;;8.40;99.90;;;;;;4984542;28;20038;-50
2023/12/26 00:46:18;;;;;;;5.03;2.50;;;8.40;99.90;;;;;;4982658;28;20098;-51
2023/12/26 00:48:44;;;;;;;5.22;2.25;;;8.50;99.90;;;;;;4986014;28;20502;-53
2023/12/26 00:51:10;;;;;;;2.70;1.98;;;8.40;99.90;;;;;;4983542;28;20033;-51
2023/12/26 00:53:35;;;;;;;3.50;2.05;;;8.50;99.90;;;;;;4984904;28;20113;-53
2023/12/26 00:56:01;;;;;;;3.13;1.95;;;8.40;99.90;;;;;;4983116;28;20022;-48
2023/12/26 00:58:27;;;;;;;4.68;1.48;;;8.40;99.90;;;;;;4984862;28;20037;-55
2023/12/26 01:00:52;;;;;;;2.08;1.20;;;8.40;99.90;;;;;;4980100;28;20057;-51
2023/12/26 01:03:22;;;;;;;2.80;1.20;;;8.40;99.90;;;;;;4983388;28;20022;-53
2023/12/26 01:05:50;;;;;;;2.47;1.13;;;8.40;99.90;;;;;;4984038;28;20026;-53
2023/12/26 01:08:18;;;;;;;1.52;1.15;;;8.40;99.90;;;;;;4985426;28;20037;-54
2023/12/26 01:10:44;;;;;;;3.00;0.95;;;8.40;99.90;;;;;;4983158;28;20061;-53
2023/12/26 01:13:10;;;;;;;3.17;0.77;;;8.40;99.90;;;;;;4983120;28;20269;-49
2023/12/26 01:15:36;;;;;;;2.05;0.82;;;8.40;99.90;;;;;;4984118;28;20081;-48
2023/12/26 01:18:02;;;;;;;3.95;1.27;;;8.40;99.90;;;;;;4979263;28;20721;-51
2023/12/26 01:20:27;;;;;;;2.70;1.30;;;8.40;99.90;;;;;;4985129;28;20033;-49
2023/12/26 01:22:53;;;;;;;0.65;0.60;;;8.30;99.90;;;;;;4984968;28;20530;-49
2023/12/26 01:25:19;;;;;;;2.85;1.00;;;8.40;99.90;;;;;;4984558;28;20054;-51
2023/12/26 01:27:44;;;;;;;2.25;0.70;;;8.30;99.90;;;;;;4983582;28;20027;-51
2023/12/26 01:30:10;;;;;;;2.15;0.82;;;8.30;99.90;;;;;;4985145;28;20022;-50
2023/12/26 01:32:36;;;;;;;1.65;1.00;;;8.30;99.90;;;;;;4990233;28;20074;-49
2023/12/26 01:35:02;;;;;;;1.08;0.80;;;8.30;99.90;;;;;;4987374;28;20573;-49
2023/12/26 01:37:27;;;;;;;1.15;0.77;;;8.30;99.90;;;;;;4988109;28;20137;-51
2023/12/26 01:39:53;;;;;;;2.58;0.80;;;8.30;99.90;;;;;;4986830;28;20033;-52
2023/12/26 01:42:19;;;;;;;5.55;1.27;;;8.30;99.90;;;;;;4986989;28;20029;-54
2023/12/26 01:44:44;;;;;;;0.73;0.70;;;8.30;99.90;;;;;;4986129;28;20042;-54
2023/12/26 01:47:11;;;;;;;1.38;0.85;;;8.30;99.90;;;;;;4987598;28;20109;-50
2023/12/26 01:49:37;;;;;;;1.85;0.68;;;8.30;99.90;;;;;;4985098;28;20041;-49
2023/12/26 01:52:06;;;;;;;4.50;0.82;;;8.30;99.90;;;;;;4984633;28;20132;-50
2023/12/26 01:54:35;;;;;;;2.67;0.82;;;8.40;99.90;;;;;;4982597;28;20034;-53
2023/12/26 01:57:02;;;;;;;3.03;0.88;;;8.30;99.90;;;;;;4987595;28;20096;-53
2023/12/26 01:59:28;;;;;;;3.60;1.27;;;8.30;99.90;;;;;;4983158;28;20031;-50
2023/12/26 02:01:54;;;;;;;0.60;0.60;;;8.30;99.90;;;;;;4987167;28;20178;-53
2023/12/26 02:04:20;;;;;;;0.93;0.80;;;8.30;99.90;;;;;;4986840;28;21646;-49
2023/12/26 02:06:48;;;;;;;1.58;1.00;;;8.30;99.90;;;;;;4981734;28;20046;-54
2023/12/26 02:09:13;;;;;;;1.77;0.75;;;8.30;99.90;;;;;;4988202;28;20109;-51
2023/12/26 02:11:39;;;;;;;2.88;0.70;;;8.40;99.90;;;;;;4983834;28;20158;-51
2023/12/26 02:14:06;;;;;;;0.75;0.75;;;8.30;99.90;;;;;;4982989;28;20030;-55
2023/12/26 02:16:35;;;;;;;1.92;1.02;;;8.30;99.90;;;;;;4983211;28;20498;-53
2023/12/26 02:19:01;;;;;;;0.70;0.70;;;8.30;99.90;;;;;;4987052;28;20577;-52
2023/12/26 02:21:27;;;;;;;2.38;0.80;;;8.30;99.90;;;;;;4984272;28;20026;-52
2023/12/26 02:23:58;;;;;;;1.00;0.65;;;8.40;99.90;;;;;;4985979;28;20037;-49
2023/12/26 02:26:27;;;;;;;2.35;0.90;;;8.40;99.90;;;;;;4985460;28;20030;-52
2023/12/26 02:28:54;;;;;;;1.52;0.77;;;8.40;99.90;;;;;;4983640;28;20022;-49
2023/12/26 02:31:20;;;;;;;1.48;0.82;;;8.40;99.90;;;;;;4987325;28;20019;-51
2023/12/26 02:33:47;;;;;;;2.67;0.95;;;8.40;99.90;;;;;;4984929;28;20030;-50
2023/12/26 02:36:13;;;;;;;2.25;0.90;;;8.40;99.90;;;;;;4985466;28;20465;-50
2023/12/26 02:38:39;;;;;;;0.70;0.68;;;8.40;99.90;;;;;;4981195;28;20058;-50
2023/12/26 02:41:05;;;;;;;1.50;0.80;;;8.40;99.90;;;;;;4986788;28;20393;-51
2023/12/26 02:43:32;;;;;;;1.83;0.80;;;8.50;99.90;;;;;;4990404;28;20102;-48
2023/12/26 02:45:58;;;;;;;0.73;0.73;;;8.50;99.90;;;;;;4982908;28;20026;-52
2023/12/26 02:48:24;;;;;;;2.15;0.90;;;8.50;99.90;;;;;;4987189;28;20089;-54
2023/12/26 02:50:50;;;;;;;2.17;0.60;;;8.50;99.90;;;;;;4984653;28;20410;-53
2023/12/26 02:53:15;;;;;;;1.55;0.88;;;8.50;99.90;;;;;;4986080;28;20030;-49
2023/12/26 02:55:42;;;;;;;2.08;1.13;;;8.50;99.90;;;;;;4983895;28;20577;-52
2023/12/26 02:58:07;;;;;;;2.05;0.70;;;8.50;99.90;;;;;;4986686;28;20056;-50
2023/12/26 03:00:33;;;;;;;1.45;0.57;;;8.50;99.90;;;;;;4986028;28;20558;-52
2023/12/26 03:02:59;;;;;;;0.68;0.55;;;8.50;99.90;;;;;;4985474;28;20029;-54
2023/12/26 03:05:24;;;;;;;1.10;0.60;;;8.50;99.90;;;;;;4984569;28;20026;-55
2023/12/26 03:07:50;;;;;;;0.43;0.43;;;8.50;99.90;;;;;;4985709;28;20104;-51
2023/12/26 03:10:16;;;;;;;0.70;0.43;;;8.50;99.90;;;;;;4989825;28;20027;-54
2023/12/26 03:12:44;;;;;;;2.42;0.73;;;8.50;99.90;;;;;;4983499;28;20034;-51
2023/12/26 03:15:13;;;;;;;0.57;0.40;;;8.50;99.90;;;;;;4983372;28;20022;-53
2023/12/26 03:17:38;;;;;;;2.08;0.85;;;8.50;99.90;;;;;;4983706;28;20077;-52
2023/12/26 03:20:04;;;;;;;1.48;0.65;;;8.50;99.90;;;;;;4983957;28;20030;-52
2023/12/26 03:22:30;;;;;;;1.98;0.50;;;8.50;99.90;;;;;;4984369;28;20188;-48
2023/12/26 03:24:56;;;;;;;0.82;0.50;;;8.50;99.90;;;;;;4982441;28;20651;-55
2023/12/26 03:27:21;;;;;;;2.00;0.52;;;8.50;99.90;;;;;;4990642;28;20034;-49
2023/12/26 03:29:47;;;;;;;0.77;0.63;;;8.50;99.90;;;;;;4984542;28;20487;-54
2023/12/26 03:32:16;;;;;;;1.35;0.60;;;8.50;99.90;;;;;;4981227;28;20022;-52
2023/12/26 03:34:42;;;;;;;1.15;0.60;;;8.60;99.90;;;;;;4985995;28;20083;-48
2023/12/26 03:37:07;;;;;;;1.98;0.60;;;8.50;99.90;;;;;;4984534;28;20030;-49
2023/12/26 03:39:33;;;;;;;1.52;0.77;;;8.60;99.90;;;;;;4981812;28;20073;-51
2023/12/26 03:41:59;;;;;;;3.25;0.90;;;8.60;99.90;;;;;;4998383;28;20027;-53
2023/12/26 03:44:24;;;;;;;3.03;0.65;;;8.60;99.90;;;;;;4984129;28;20041;-51
2023/12/26 03:46:51;;;;;;;4.03;0.82;;;8.60;99.90;;;;;;4983630;28;20031;-51
2023/12/26 03:49:16;;;;;;;0.98;0.90;;;8.50;99.90;;;;;;4983411;28;20073;-49
2023/12/26 03:51:44;;;;;;;1.55;0.90;;;8.50;99.90;;;;;;4983854;28;20414;-51
2023/12/26 03:54:11;;;;;;;1.20;0.82;;;8.60;99.90;;;;;;4982887;28;20035;-53
2023/12/26 03:56:36;;;;;;;2.95;1.02;;;8.60;99.90;;;;;;4982256;28;20045;-58
2023/12/26 03:59:02;;;;;;;1.85;0.80;;;8.60;99.90;;;;;;4985156;28;20042;-48
2023/12/26 04:01:28;;;;;;;2.00;0.80;;;8.60;99.90;;;;;;4981726;28;20030;-53
2023/12/26 04:03:54;;;;;;;3.53;0.90;;;8.60;99.90;;;;;;4983162;28;20495;-50
2023/12/26 04:06:20;;;;;;;3.88;1.02;;;8.50;99.90;;;;;;4982601;28;20026;-56
2023/12/26 04:08:46;;;;;;;1.83;1.02;;;8.60;99.90;;;;;;4984544;28;20176;-54
2023/12/26 04:11:12;;;;;;;3.22;0.90;;;8.60;99.90;;;;;;4977895;28;20067;-56
2023/12/26 04:13:39;;;;;;;2.13;0.80;;;8.50;99.90;;;;;;4985817;28;20030;-52
2023/12/26 04:16:04;;;;;;;2.63;1.08;;;8.60;99.90;;;;;;4981761;28;20026;-51
2023/12/26 04:18:30;;;;;;;2.25;1.10;;;8.60;99.90;;;;;;4982222;28;20602;-52
2023/12/26 04:20:56;;;;;;;1.45;0.63;;;8.60;99.90;;;;;;4982903;28;20030;-51
2023/12/26 04:23:22;;;;;;;1.92;1.10;;;8.60;99.90;;;;;;4982699;28;20030;-52
2023/12/26 04:25:48;;;;;;;3.28;1.33;;;8.50;99.90;;;;;;4982957;28;20381;-59
2023/12/26 04:28:13;;;;;;;2.22;1.15;;;8.60;99.90;;;;;;4982522;28;20037;-54
2023/12/26 04:30:40;;;;;;;2.70;0.70;;;8.60;99.90;;;;;;4981999;28;20451;-51
2023/12/26 04:33:07;;;;;;;2.17;0.88;;;8.50;99.90;;;;;;4983931;28;20450;-51
2023/12/26 04:35:33;;;;;;;3.17;1.00;;;8.50;99.90;;;;;;4982390;28;20513;-50
2023/12/26 04:37:59;;;;;;;5.65;1.58;;;8.60;99.90;;;;;;4980850;28;20030;-48
2023/12/26 04:40:26;;;;;;;3.97;1.33;;;8.60;99.90;;;;;;4982274;28;20038;-53
2023/12/26 04:42:51;;;;;;;2.95;1.27;;;8.50;99.90;;;;;;4984450;28;20080;-49
2023/12/26 04:45:17;;;;;;;1.85;1.00;;;8.50;99.90;;;;;;4984383;28;20027;-50
2023/12/26 04:47:43;;;;;;;4.50;1.10;;;8.50;99.90;;;;;;4981330;28;20066;-48
2023/12/26 04:50:09;;;;;;;9.55;2.90;;;8.50;99.90;;;;;;4983144;28;20023;-50
2023/12/26 04:52:35;;;;;;;7.00;1.67;;;8.40;99.90;;;;;;4983760;28;20031;-51
2023/12/26 04:55:01;;;;;;;6.82;1.40;;;8.40;99.90;;;;;;4984878;28;20072;-54
2023/12/26 04:57:26;;;;;;;9.32;2.40;;;8.30;99.90;;;;;;5025892;22;20471;-62
2023/12/26 04:59:52;;;;;;;6.22;0.90;;;8.30;99.90;;;;;;5008683;28;20065;-62
2023/12/26 05:02:18;;;;;;;6.30;1.55;;;8.20;99.90;;;;;;5011272;28;20526;-62
2023/12/26 05:04:43;;;;;;;11.30;1.52;;;8.20;99.90;;;;;;5021922;28;20479;-63
2023/12/26 05:07:09;;;;;;;6.20;1.35;;;8.10;99.90;;;;;;4995147;28;20026;-62
2023/12/26 05:09:35;;;;;;;11.35;2.35;;;8.10;99.90;;;;;;4989853;28;20025;-60
2023/12/26 05:12:01;;;;;;;11.68;1.85;;;8.10;99.90;;;;;;4987964;28;20027;-62
2023/12/26 05:14:27;;;;;;;5.57;1.80;;;8.10;99.90;;;;;;4987861;28;20720;-62
2023/12/26 05:16:53;;;;;;;6.72;1.40;;;8.10;99.90;;;;;;4985391;28;20499;-59
2023/12/26 05:19:19;;;;;;;8.93;1.58;;;8.10;99.90;;;;;;4987858;28;20077;-62
2023/12/26 05:21:45;;;;;;;15.27;2.28;;;8.00;99.90;;;;;;4987545;28;20027;-60
2023/12/26 05:24:11;;;;;;;11.00;1.88;;;8.00;99.90;;;;;;4987230;28;20026;-61
2023/12/26 05:26:43;;;;;;;13.95;2.03;;;8.00;99.90;;;;;;4990765;28;20730;-60
2023/12/26 05:29:10;;;;;;;8.60;2.03;;;8.00;99.90;;;;;;4986800;28;20049;-61
2023/12/26 05:31:36;;;;;;;8.55;2.03;;;7.90;99.90;;;;;;4987469;28;20041;-60
2023/12/26 05:34:03;;;;;;;8.15;2.45;;;7.90;99.90;;;;;;4988966;28;20026;-60
2023/12/26 05:36:29;;;;;;;8.73;2.33;;;7.90;99.90;;;;;;4988974;28;20038;-61
2023/12/26 05:38:55;;;;;;;11.77;2.42;;;7.90;99.90;;;;;;4987580;28;20034;-60
2023/12/26 05:41:20;;;;;;;9.65;2.13;;;7.80;99.90;;;;;;4987347;28;20058;-61
2023/12/26 05:43:46;;;;;;;10.40;2.38;;;7.80;99.90;;;;;;4988433;28;20027;-61
2023/12/26 05:46:12;;;;;;;7.72;1.92;;;7.80;99.90;;;;;;4991785;28;20031;-60
2023/12/26 05:48:40;;;;;;;10.05;2.38;;;7.80;99.90;;;;;;4992003;28;20245;-60
2023/12/26 05:51:07;;;;;;;11.63;2.42;;;7.80;99.90;;;;;;4987844;28;20046;-61
2023/12/26 05:53:32;;;;;;;10.73;1.65;;;7.80;99.90;;;;;;4988064;28;20030;-60
2023/12/26 05:55:58;;;;;;;13.43;1.92;;;7.80;99.90;;;;;;4993751;28;20409;-61
2023/12/26 05:58:25;;;;;;;12.98;2.13;;;7.70;99.90;;;;;;4992019;28;20518;-61
2023/12/26 06:00:51;;;;;;;14.98;2.75;;;7.80;99.90;;;;;;4992150;28;20022;-60
2023/12/26 06:03:16;;;;;;;5.53;1.67;;;7.80;99.90;;;;;;4988366;28;20492;-60
2023/12/26 06:05:42;;;;;;;8.18;1.80;;;7.80;99.90;;;;;;4984761;28;20034;-62
2023/12/26 06:08:07;;;;;;;8.65;2.08;;;7.80;99.90;;;;;;4987828;28;20030;-61
2023/12/26 06:10:33;;;;;;;12.40;2.40;;;7.80;99.90;;;;;;4987070;28;20103;-61
2023/12/26 06:12:59;;;;;;;7.25;1.48;;;7.80;99.90;;;;;;4985635;28;20030;-62
2023/12/26 06:15:25;;;;;;;15.88;2.75;;;7.70;99.90;;;;;;4985273;28;20031;-62
2023/12/26 06:17:50;;;;;;;6.43;1.85;;;7.70;99.90;;;;;;4987698;28;20031;-61
2023/12/26 06:20:16;;;;;;;6.72;1.50;;;7.80;99.90;;;;;;4982439;28;20091;-61
2023/12/26 06:22:42;;;;;;;5.63;1.63;;;7.80;99.90;;;;;;4987869;28;20152;-62
2023/12/26 06:25:08;;;;;;;9.30;2.33;;;7.70;99.90;;;;;;4989141;28;20106;-62
2023/12/26 06:27:34;;;;;;;6.88;1.85;;;7.70;99.90;;;;;;4988217;28;20117;-62
2023/12/26 06:29:59;;;;;;;7.97;2.22;;;7.70;99.90;;;;;;4988410;28;20526;-62
2023/12/26 06:32:27;;;;;;;7.75;1.67;;;7.70;99.90;;;;;;5002990;28;20077;-62
2023/12/26 06:34:54;;;;;;;12.57;2.67;;;7.70;99.90;;;;;;4985764;28;20038;-62
2023/12/26 06:37:19;;;;;;;12.10;2.00;;;7.70;99.90;;;;;;4983983;28;20650;-62
2023/12/26 06:39:45;;;;;;;12.55;2.25;;;7.70;99.90;;;;;;4985837;28;20491;-62
2023/12/26 06:42:11;;;;;;;9.02;2.13;;;7.70;99.90;;;;;;4986306;28;20030;-61
2023/12/26 06:44:37;;;;;;;7.90;2.40;;;7.70;99.90;;;;;;4985100;28;20031;-61
2023/12/26 06:47:03;;;;;;;12.13;2.08;;;7.70;99.90;;;;;;4991098;28;20053;-60
2023/12/26 06:49:29;;;;;;;8.52;2.05;;;7.70;99.90;;;;;;4987783;28;20073;-60
2023/12/26 06:51:55;;;;;;;16.83;2.67;;;7.70;99.90;;;;;;4990116;28;20022;-61
2023/12/26 06:54:21;;;;;;;11.52;2.70;;;7.70;99.90;;;;;;4984980;28;20120;-62
2023/12/26 06:56:47;;;;;;;12.48;2.75;;;7.70;99.90;;;;;;4985077;28;20495;-62
2023/12/26 06:59:14;;;;;;;13.80;2.60;;;7.70;99.90;;;;;;4984375;28;20039;-61
2023/12/26 07:01:48;;;;;;;8.50;2.00;;;7.70;99.90;;;;;;4986836;28;20037;-62
2023/12/26 07:04:14;;;;;;;13.20;2.53;;;7.70;99.90;;;;;;4984702;28;20026;-62
2023/12/26 07:06:39;;;;;;;10.27;2.40;;;7.70;99.90;;;;;;4985329;28;20037;-60
2023/12/26 07:09:05;;;;;;;11.02;3.50;;;7.70;99.90;;;;;;4985229;28;20029;-58
2023/12/26 07:11:30;;;;;;;14.80;2.30;;;7.80;99.90;;;;;;4983974;28;20038;-61
2023/12/26 07:13:56;;;;;;;9.35;2.25;;;7.70;99.90;;;;;;4988196;28;20113;-62
2023/12/26 07:16:22;;;;;;;10.05;2.22;;;7.80;99.90;;;;;;4985300;28;20499;-63
2023/12/26 07:18:47;;;;;;;7.15;2.53;;;7.80;99.90;;;;;;4984891;28;20070;-61
2023/12/26 07:21:16;;;;;;;11.38;2.38;;;7.70;99.90;;;;;;4984134;28;20038;-61
2023/12/26 07:23:44;;;;;;;6.25;1.95;;;7.70;99.90;;;;;;4983624;28;20030;-61
2023/12/26 07:26:10;;;;;;;13.63;2.55;;;7.70;99.90;;;;;;4986379;28;20029;-62
2023/12/26 07:28:36;;;;;;;13.98;2.40;;;7.70;99.90;;;;;;4988429;28;20030;-60
2023/12/26 07:31:02;;;;;;;10.65;2.88;;;7.70;99.90;;;;;;4985098;28;20034;-62
2023/12/26 07:33:28;;;;;;;8.15;2.10;;;7.60;99.90;;;;;;4987370;28;20030;-61
2023/12/26 07:35:57;;;;;;;7.63;1.75;;;7.60;99.90;;;;;;4986163;28;20026;-62
2023/12/26 07:38:24;;;;;;;8.63;1.83;;;7.60;99.90;;;;;;4984909;28;20035;-61
2023/12/26 07:40:50;;;;;;;13.15;2.00;;;7.70;99.90;;;;;;4984704;28;20426;-61
2023/12/26 07:43:16;;;;;;;8.13;1.98;;;7.70;99.90;;;;;;4985126;28;20030;-60
2023/12/26 07:45:42;;;;;;;6.63;1.83;;;7.80;99.90;;;;;;4981505;28;20046;-61
2023/12/26 07:48:08;;;;;;;8.90;2.35;;;7.70;99.90;;;;;;4984435;28;20026;-61
2023/12/26 07:50:34;;;;;;;8.13;2.72;;;7.80;99.90;;;;;;4985553;28;20081;-61
2023/12/26 07:52:59;;;;;;;5.50;1.60;;;7.80;99.90;;;;;;4988589;28;20029;-60
2023/12/26 07:55:25;;;;;;;6.90;2.67;;;7.80;99.90;;;;;;4984741;28;20034;-59
2023/12/26 07:57:51;;;;;;;10.00;2.22;;;7.80;99.90;;;;;;4987912;28;20578;-61
2023/12/26 08:00:16;;;;;;;6.35;1.92;;;7.80;99.90;;;;;;4982083;28;20030;-61
2023/12/26 08:02:42;;;;;;;8.50;1.98;;;7.80;99.90;;;;;;4984678;28;20403;-61
2023/12/26 08:05:09;;;;;;;8.82;1.77;;;7.80;99.90;;;;;;4984997;28;20317;-61
2023/12/26 08:07:35;;;;;;;6.35;1.48;;;7.80;99.90;;;;;;4987631;28;20037;-60
2023/12/26 08:10:00;;;;;;;14.65;2.72;;;7.80;99.90;;;;;;4986190;28;20486;-61
2023/12/26 08:12:26;;;;;;;8.63;2.13;;;7.80;99.90;;;;;;4982810;28;20038;-61
2023/12/26 08:14:51;;;;;;;6.90;2.45;;;7.80;99.90;;;;;;4984786;28;20065;-61
2023/12/26 08:17:17;;;;;;;6.75;2.10;;;7.80;99.90;;;;;;4982566;28;20043;-61
2023/12/26 08:19:43;;;;;;;8.80;1.95;;;7.70;99.90;;;;;;4983290;28;20547;-58
2023/12/26 08:22:08;;;;;;;7.50;1.83;;;7.70;99.90;;;;;;4985264;28;20462;-61
2023/12/26 08:24:34;;;;;;;9.23;1.88;;;7.70;99.90;;;;;;4984054;28;20033;-60
2023/12/26 08:26:59;;;;;;;10.77;2.22;;;7.60;99.90;;;;;;4983115;28;20018;-62
2023/12/26 08:29:25;;;;;;;8.77;2.78;;;7.60;99.90;;;;;;4984851;28;20053;-60
2023/12/26 08:31:51;;;;;;;11.75;2.45;;;7.50;99.90;;;;;;4985891;28;20054;-60
2023/12/26 08:34:16;;;;;;;9.68;2.30;;;7.50;99.90;;;;;;4985809;28;20134;-60
2023/12/26 08:36:42;;;;;;;9.50;1.85;;;7.50;99.90;;;;;;4985729;28;20030;-60
2023/12/26 08:39:07;;;;;;;8.35;2.35;;;7.50;99.90;;;;;;4984517;28;20034;-59
2023/12/26 08:41:33;;;;;;;13.82;2.63;;;7.50;99.90;;;;;;4984296;28;20121;-60
2023/12/26 08:43:59;;;;;;;6.10;2.05;;;7.50;99.90;;;;;;4984920;28;20033;-60
2023/12/26 08:46:25;;;;;;;11.73;2.50;;;7.60;99.90;;;;;;4981966;28;20558;-62
2023/12/26 08:48:50;;;;;;;9.90;3.25;;;7.60;99.90;;;;;;5000264;28;20142;-60
2023/12/26 08:51:17;;;;;;;11.60;2.47;;;7.60;99.90;;;;;;4982778;28;20060;-60
2023/12/26 08:53:42;;;;;;;10.52;2.70;;;7.70;99.90;;;;;;4986284;28;20098;-61
2023/12/26 08:56:08;;;;;;;5.57;1.85;;;7.70;99.90;;;;;;4986425;28;20749;-60
2023/12/26 08:58:34;;;;;;;12.15;3.30;;;7.70;99.90;;;;;;4983485;28;20035;-59
2023/12/26 09:01:00;;;;;;;10.60;2.58;;;7.70;99.90;;;;;;4986950;28;20030;-61
2023/12/26 09:03:26;;;;;;;16.25;3.58;;;7.80;99.90;;;;;;4985096;28;20045;-61
2023/12/26 09:05:52;;;;;;;15.57;2.30;;;7.80;99.90;;;;;;4999804;28;20031;-62
2023/12/26 09:08:18;;;;;;;14.13;1.95;;;7.80;99.90;;;;;;4983342;28;20053;-61
2023/12/26 09:10:44;;;;;;;7.85;2.33;;;7.80;99.90;;;;;;4984067;28;20490;-60
2023/12/26 09:13:11;;;;;;;13.05;2.58;;;7.80;99.90;;;;;;4981048;28;20027;-61
2023/12/26 09:15:36;;;;;;;8.77;1.83;;;7.90;99.90;;;;;;4982016;28;20066;-60
2023/12/26 09:18:03;;;;;;;13.60;2.13;;;7.90;99.90;;;;;;4986163;28;20034;-61
2023/12/26 09:20:29;;;;;;;6.75;2.30;;;7.90;99.90;;;;;;4979862;28;20042;-61
2023/12/26 09:22:54;;;;;;;8.45;2.05;;;7.90;99.90;;;;;;4984437;28;20438;-61
2023/12/26 09:25:20;;;;;;;8.00;2.10;;;7.90;99.90;;;;;;4982575;28;20499;-61
2023/12/26 09:27:46;;;;;;;11.20;3.05;;;7.90;99.90;;;;;;4984279;28;20029;-60
2023/12/26 09:30:12;;;;;;;10.23;1.83;;;7.90;99.90;;;;;;5001825;28;20484;-61
2023/12/26 09:32:38;;;;;;;8.43;1.70;;;7.90;99.90;;;;;;4987402;28;20054;-60
2023/12/26 09:35:04;;;;;;;8.23;2.67;;;7.90;99.90;;;;;;4984832;28;20466;-60
2023/12/26 09:37:34;;;;;;;7.65;2.45;;;8.00;99.90;;;;;;4981869;28;20093;-61
2023/12/26 09:40:01;;;;;;;15.40;3.50;;;8.00;99.90;;;;;;4982868;28;20434;-60
2023/12/26 09:42:27;;;;;;;13.35;2.58;;;7.90;99.90;;;;;;4982720;28;20027;-61
2023/12/26 09:44:53;;;;;;;8.20;2.33;;;8.00;99.90;;;;;;4985196;28;20034;-60
2023/12/26 09:47:20;;;;;;;8.95;2.20;;;8.00;99.90;;;;;;4986040;28;20533;-57
2023/12/26 09:49:47;;;;;;;14.68;2.33;;;8.00;99.90;;;;;;4984058;28;20023;-63
2023/12/26 09:52:13;;;;;;;16.65;2.42;;;8.00;99.90;;;;;;4987901;28;20080;-59
2023/12/26 09:54:44;;;;;;;15.25;2.75;;;8.00;99.90;;;;;;4987040;28;20037;-61
2023/12/26 09:57:10;;;;;;;13.30;2.60;;;8.00;99.90;;;;;;4989567;28;20041;-60
2023/12/26 09:59:37;;;;;;;8.82;2.53;;;8.00;99.90;;;;;;4987686;28;20042;-59
2023/12/26 10:02:04;;;;;;;10.57;2.03;;;8.00;99.90;;;;;;4985880;28;20034;-61
2023/12/26 10:04:30;;;;;;;8.25;1.88;;;8.10;99.90;;;;;;4985862;28;20033;-62
2023/12/26 10:06:56;;;;;;;7.57;1.52;;;8.10;99.90;;;;;;4986473;28;20398;-61
2023/12/26 10:09:22;;;;;;;3.88;1.80;;;8.10;99.90;;;;;;4987559;28;20023;-62
2023/12/26 10:11:47;;;;;;;9.70;2.05;;;8.00;99.90;;;;;;4985708;28;20033;-62
2023/12/26 10:14:29;;;;;;;5.38;1.42;;;8.00;99.90;;;;;;4987416;28;20108;-59
2023/12/26 10:16:56;;;;;;;6.80;1.30;;;7.90;99.90;;;;;;4985543;28;20037;-62
2023/12/26 10:19:22;;;;;;;8.20;2.00;;;7.90;99.90;;;;;;4986704;28;20034;-62
2023/12/26 10:21:50;;;;;;;6.75;2.00;;;7.90;99.90;;;;;;5006219;28;20042;-62
2023/12/26 10:24:20;;;;;;;7.55;1.92;;;7.80;99.90;;;;;;4983273;28;20051;-59
2023/12/26 10:26:49;;;;;;;6.32;1.80;;;7.80;99.90;;;;;;4986691;28;20473;-62
2023/12/26 10:29:15;;;;;;;13.55;2.58;;;7.90;99.90;;;;;;4987643;28;20053;-61
2023/12/26 10:31:42;;;;;;;6.85;1.80;;;7.80;99.90;;;;;;4984331;28;20022;-62
2023/12/26 10:34:19;;;;;;;11.52;1.90;;;7.80;99.90;;;;;;4988267;28;20105;-62
2023/12/26 10:36:45;;;;;;;6.00;1.90;;;7.80;99.90;;;;;;4982051;28;20517;-63
2023/12/26 10:39:11;;;;;;;5.57;1.73;;;7.80;99.90;;;;;;4985206;28;20061;-62
2023/12/26 10:41:45;;;;;;;7.82;1.90;;;7.80;99.90;;;;;;4985352;28;20031;-63
2023/12/26 10:44:13;;;;;;;3.78;1.45;;;7.90;99.90;;;;;;4987002;28;20487;-60
2023/12/26 10:46:40;;;;;;;6.57;1.85;;;7.90;99.90;;;;;;4987047;28;20019;-63
2023/12/26 10:49:10;;;;;;;7.95;1.98;;;7.90;99.90;;;;;;4986620;28;20030;-61
2023/12/26 10:51:41;;;;;;;6.15;1.92;;;7.90;99.90;;;;;;4983894;28;20026;-61
2023/12/26 10:54:06;;;;;;;8.40;1.25;;;8.00;99.90;;;;;;4986965;28;20035;-63
2023/12/26 10:56:32;;;;;;;10.35;2.20;;;8.00;99.90;;;;;;4988620;28;20045;-63
2023/12/26 10:59:00;;;;;;;9.68;2.13;;;8.00;99.90;;;;;;4985126;28;20073;-60
2023/12/26 13:53:15;;;;;;;2.67;0.50;;;6.50;99.90;;;;;;4985834;28;20477;-63
2023/12/26 13:55:40;;;;;;;1.08;0.55;;;6.50;99.90;;;;;;4987786;28;20022;-62
2023/12/26 13:58:07;;;;;;;6.35;0.95;;;6.50;99.90;;;;;;4990402;28;20136;-63
2023/12/26 14:00:33;;;;;;;4.13;0.90;;;6.50;99.90;;;;;;4987215;28;20038;-63
2023/12/26 14:02:59;;;;;;;5.20;0.70;;;6.50;99.90;;;;;;4986463;28;20023;-63
2023/12/26 14:05:25;;;;;;;1.08;0.50;;;6.50;99.90;;;;;;4986755;28;20526;-64
2023/12/26 14:07:55;;;;;;;4.47;1.30;;;6.50;99.90;;;;;;4984155;28;20022;-63
2023/12/26 14:10:20;;;;;;;6.40;1.00;;;6.50;99.90;;;;;;4987400;28;20022;-64
2023/12/26 14:12:46;;;;;;;8.15;1.48;;;6.50;99.90;;;;;;4990560;28;20033;-63
2023/12/26 14:15:11;;;;;;;3.42;1.50;;;6.50;99.90;;;;;;4986870;28;20026;-62
2023/12/26 14:17:38;;;;;;;4.78;1.13;;;6.50;99.90;;;;;;4988456;28;20105;-64
2023/12/26 14:20:05;;;;;;;5.93;1.10;;;6.50;99.90;;;;;;4986504;28;21014;-63
2023/12/26 14:22:31;;;;;;;6.95;1.25;;;6.50;99.90;;;;;;5000438;28;20031;-63
2023/12/26 14:24:56;;;;;;;6.90;1.65;;;6.50;99.90;;;;;;4986541;28;20462;-63
2023/12/26 14:27:22;;;;;;;1.90;0.88;;;6.50;99.90;;;;;;4988501;28;20049;-63
2023/12/26 14:29:47;;;;;;;2.92;0.90;;;6.50;99.90;;;;;;4999901;28;20542;-63
2023/12/26 14:32:13;;;;;;;1.13;0.60;;;6.50;99.90;;;;;;4988769;28;20030;-63
2023/12/26 14:34:39;;;;;;;9.98;1.83;;;6.50;99.90;;;;;;4986840;28;20022;-64
2023/12/26 14:37:04;;;;;;;4.30;0.88;;;6.60;99.90;;;;;;4986708;28;20069;-63
2023/12/26 14:39:30;;;;;;;3.78;0.88;;;6.60;99.90;;;;;;4992953;28;20038;-63
2023/12/26 14:41:55;;;;;;;5.07;1.13;;;6.50;99.90;;;;;;4985185;28;20033;-62
2023/12/26 14:44:21;;;;;;;7.00;1.02;;;6.50;99.90;;;;;;4987780;28;20030;-64
2023/12/26 14:46:46;;;;;;;2.92;1.20;;;6.50;99.90;;;;;;4984295;28;20641;-64
2023/12/26 14:49:12;;;;;;;3.70;0.68;;;6.50;99.90;;;;;;4987393;28;20045;-63
2023/12/26 14:51:37;;;;;;;5.10;1.23;;;6.50;99.90;;;;;;4987696;28;20042;-63
2023/12/26 14:54:03;;;;;;;3.50;1.05;;;6.50;99.90;;;;;;4983748;28;20075;-63
2023/12/26 14:56:29;;;;;;;3.70;0.95;;;6.50;99.90;;;;;;4986144;28;20042;-62
2023/12/26 14:58:54;;;;;;;2.78;0.80;;;6.50;99.90;;;;;;4984455;28;20033;-63
2023/12/26 15:01:20;;;;;;;3.33;0.82;;;6.40;99.90;;;;;;4986329;28;20022;-63
2023/12/26 15:03:48;;;;;;;3.13;0.80;;;6.40;99.90;;;;;;4986219;28;20034;-62
2023/12/26 15:06:17;;;;;;;4.70;1.05;;;6.40;99.90;;;;;;4984419;28;20023;-62
2023/12/26 15:08:43;;;;;;;3.22;1.13;;;6.30;99.90;;;;;;4985528;28;20023;-62
2023/12/26 15:11:15;;;;;;;4.95;0.90;;;6.30;99.90;;;;;;4984356;28;20033;-62
2023/12/26 15:13:41;;;;;;;3.55;1.00;;;6.30;99.90;;;;;;4986605;28;20066;-63
2023/12/26 15:16:19;;;;;;;2.60;0.90;;;6.40;99.90;;;;;;5006266;28;20111;-62
2023/12/26 15:18:45;;;;;;;4.80;1.40;;;6.40;99.90;;;;;;4982219;28;20042;-64
2023/12/26 15:21:11;;;;;;;1.73;0.70;;;6.40;99.90;;;;;;4985870;28;20065;-63
2023/12/26 15:23:37;;;;;;;5.80;1.35;;;6.30;99.90;;;;;;4988072;28;20081;-63
2023/12/26 15:26:10;;;;;;;1.55;0.85;;;6.30;99.90;;;;;;4982228;28;20029;-63
2023/12/26 15:28:36;;;;;;;8.85;1.00;;;6.20;99.90;;;;;;4983955;28;20022;-63
2023/12/26 15:31:02;;;;;;;5.80;1.08;;;6.20;99.90;;;;;;4982554;28;20061;-62
2023/12/26 15:33:28;;;;;;;3.33;1.23;;;6.20;99.90;;;;;;4987792;28;20494;-63
2023/12/26 15:35:53;;;;;;;2.97;0.95;;;6.10;99.90;;;;;;4986516;28;20410;-64
2023/12/26 15:38:19;;;;;;;4.80;1.10;;;6.20;99.90;;;;;;4987103;28;20045;-63
2023/12/26 15:40:45;;;;;;;5.82;1.25;;;6.10;99.90;;;;;;4985238;28;20033;-63